sensor_id;sensor_type;location;lat;lon;timestamp;temperature;humidity
12845;DHT22;68700;48.534;9.196;2023-04-24T00:02:57;10.90;1.00
12845;DHT22;68700;48.534;9.196;2023-04-24T00:06:19;11.00;1.00
12845;DHT22;68700;48.534;9.196;2023-04-24T00:09:41;10.90;1.00
12845;DHT22;68700;48.534;9.196;2023-04-24T00:13:04;11.00;1.00
12845;DHT22;68700;48.534;9.196;2023-04-24T00:16:26;10.90;1.00
12845;DHT22;68700;48.534;9.196;2023-04-24T00:19:48;10.80;1.00
12845;DHT22;68700;48.534;9.196;2023-04-24T00:23:11;10.70;1.00
12845;DHT22;68700;48.534;9.196;2023-04-24T00:26:33;10.80;1.00
12845;DHT22;68700;48.534;9.196;2023-04-24T00:29:56;11.00;1.00
12845;DHT22;68700;48.534;9.196;2023-04-24T00:33:18;11.00;1.00
12845;DHT22;68700;48.534;9.196;2023-04-24T00:36:40;11.00;1.00
12845;DHT22;68700;48.534;9.196;2023-04-24T00:40:03;11.00;1.00
12845;DHT22;68700;48.534;9.196;2023-04-24T00:43:26;11.00;1.00
12845;DHT22;68700;48.534;9.196;2023-04-24T00:46:50;11.00;1.00
12845;DHT22;68700;48.534;9.196;2023-04-24T00:50:15;11.00;1.00
12845;DHT22;68700;48.534;9.196;2023-04-24T00:53:37;11.00;1.00
12845;DHT22;68700;48.534;9.196;2023-04-24T00:56:59;11.00;1.00
12845;DHT22;68700;48.534;9.196;2023-04-24T01:00:21;10.90;1.00
12845;DHT22;68700;48.534;9.196;2023-04-24T01:03:45;10.90;1.00
12845;DHT22;68700;48.534;9.196;2023-04-24T01:07:07;11.00;1.00
12845;DHT22;68700;48.534;9.196;2023-04-24T01:10:33;10.90;1.00
12845;DHT22;68700;48.534;9.196;2023-04-24T01:13:55;10.90;1.00
12845;DHT22;68700;48.534;9.196;2023-04-24T01:17:18;10.80;1.00
12845;DHT22;68700;48.534;9.196;2023-04-24T01:20:42;10.80;1.00
12845;DHT22;68700;48.534;9.196;2023-04-24T01:24:07;10.70;1.00
12845;DHT22;68700;48.534;9.196;2023-04-24T01:27:29;10.70;1.00
12845;DHT22;68700;48.534;9.196;2023-04-24T01:30:51;10.70;1.00
12845;DHT22;68700;48.534;9.196;2023-04-24T01:34:13;10.60;1.00
12845;DHT22;68700;48.534;9.196;2023-04-24T01:37:35;10.60;1.00
12845;DHT22;68700;48.534;9.196;2023-04-24T01:40:59;10.60;1.00
12845;DHT22;68700;48.534;9.196;2023-04-24T01:44:22;10.50;1.00
12845;DHT22;68700;48.534;9.196;2023-04-24T01:47:45;10.50;1.00
12845;DHT22;68700;48.534;9.196;2023-04-24T01:51:07;10.50;1.00
12845;DHT22;68700;48.534;9.196;2023-04-24T01:54:29;10.40;1.00
12845;DHT22;68700;48.534;9.196;2023-04-24T01:57:55;10.40;1.00
12845;DHT22;68700;48.534;9.196;2023-04-24T02:01:18;10.40;1.00
12845;DHT22;68700;48.534;9.196;2023-04-24T02:04:41;10.40;1.00
12845;DHT22;68700;48.534;9.196;2023-04-24T02:08:03;10.40;1.00
12845;DHT22;68700;48.534;9.196;2023-04-24T02:11:25;10.50;1.00
12845;DHT22;68700;48.534;9.196;2023-04-24T02:14:48;10.50;1.00
12845;DHT22;68700;48.534;9.196;2023-04-24T02:18:10;10.40;1.00
12845;DHT22;68700;48.534;9.196;2023-04-24T02:21:33;10.40;1.00
12845;DHT22;68700;48.534;9.196;2023-04-24T02:24:55;10.40;1.00
12845;DHT22;68700;48.534;9.196;2023-04-24T02:28:17;10.40;1.00
12845;DHT22;68700;48.534;9.196;2023-04-24T02:31:40;10.40;1.00
12845;DHT22;68700;48.534;9.196;2023-04-24T02:35:02;10.40;1.00
12845;DHT22;68700;48.534;9.196;2023-04-24T02:38:24;10.40;1.00
12845;DHT22;68700;48.534;9.196;2023-04-24T02:41:46;10.30;1.00
12845;DHT22;68700;48.534;9.196;2023-04-24T02:45:08;10.30;1.00
12845;DHT22;68700;48.534;9.196;2023-04-24T02:48:31;10.20;1.00
12845;DHT22;68700;48.534;9.196;2023-04-24T02:51:53;10.20;1.00
12845;DHT22;68700;48.534;9.196;2023-04-24T02:55:15;10.30;1.00
12845;DHT22;68700;48.534;9.196;2023-04-24T02:58:37;10.20;1.00
12845;DHT22;68700;48.534;9.196;2023-04-24T03:01:59;10.20;21.40
12845;DHT22;68700;48.534;9.196;2023-04-24T03:05:22;10.20;25.00
12845;DHT22;68700;48.534;9.196;2023-04-24T03:08:44;10.20;25.90
12845;DHT22;68700;48.534;9.196;2023-04-24T03:12:06;10.20;33.30
12845;DHT22;68700;48.534;9.196;2023-04-24T03:15:28;10.20;29.20
12845;DHT22;68700;48.534;9.196;2023-04-24T03:18:50;10.30;40.70
12845;DHT22;68700;48.534;9.196;2023-04-24T03:22:15;10.10;40.50
12845;DHT22;68700;48.534;9.196;2023-04-24T03:25:37;10.00;84.00
12845;DHT22;68700;48.534;9.196;2023-04-24T03:28:59;9.90;99.90
12845;DHT22;68700;48.534;9.196;2023-04-24T03:32:21;9.90;99.90
12845;DHT22;68700;48.534;9.196;2023-04-24T03:35:43;9.90;99.90
12845;DHT22;68700;48.534;9.196;2023-04-24T03:39:06;9.90;99.90
12845;DHT22;68700;48.534;9.196;2023-04-24T03:42:28;9.80;99.90
12845;DHT22;68700;48.534;9.196;2023-04-24T03:45:50;9.80;99.90
12845;DHT22;68700;48.534;9.196;2023-04-24T03:49:12;9.80;99.90
12845;DHT22;68700;48.534;9.196;2023-04-24T03:52:34;9.90;99.90
12845;DHT22;68700;48.534;9.196;2023-04-24T03:55:57;9.80;97.60
12845;DHT22;68700;48.534;9.196;2023-04-24T03:59:19;9.80;99.90
12845;DHT22;68700;48.534;9.196;2023-04-24T04:02:41;9.70;99.90
12845;DHT22;68700;48.534;9.196;2023-04-24T04:06:03;9.70;99.90
12845;DHT22;68700;48.534;9.196;2023-04-24T04:09:25;9.70;99.90
12845;DHT22;68700;48.534;9.196;2023-04-24T04:12:48;9.70;99.90
12845;DHT22;68700;48.534;9.196;2023-04-24T04:16:10;9.70;97.40
12845;DHT22;68700;48.534;9.196;2023-04-24T04:19:32;9.70;94.40
12845;DHT22;68700;48.534;9.196;2023-04-24T04:22:53;9.60;99.90
12845;DHT22;68700;48.534;9.196;2023-04-24T04:26:15;9.70;99.90
12845;DHT22;68700;48.534;9.196;2023-04-24T04:29:40;9.60;99.90
12845;DHT22;68700;48.534;9.196;2023-04-24T04:33:03;9.70;99.90
12845;DHT22;68700;48.534;9.196;2023-04-24T04:36:25;9.70;99.90
12845;DHT22;68700;48.534;9.196;2023-04-24T04:39:46;9.80;99.90
12845;DHT22;68700;48.534;9.196;2023-04-24T04:43:08;9.80;99.90
12845;DHT22;68700;48.534;9.196;2023-04-24T04:46:32;9.90;99.90
12845;DHT22;68700;48.534;9.196;2023-04-24T04:49:54;9.90;99.90
12845;DHT22;68700;48.534;9.196;2023-04-24T04:53:16;9.90;99.90
12845;DHT22;68700;48.534;9.196;2023-04-24T04:56:38;9.80;99.90
12845;DHT22;68700;48.534;9.196;2023-04-24T05:00:00;9.70;35.50
12845;DHT22;68700;48.534;9.196;2023-04-24T05:03:23;9.80;46.70
12845;DHT22;68700;48.534;9.196;2023-04-24T05:06:45;9.80;79.60
12845;DHT22;68700;48.534;9.196;2023-04-24T05:10:08;9.80;73.20
12845;DHT22;68700;48.534;9.196;2023-04-24T05:13:30;9.80;72.80
12845;DHT22;68700;48.534;9.196;2023-04-24T05:16:52;9.80;70.30
12845;DHT22;68700;48.534;9.196;2023-04-24T05:20:15;9.70;91.20
12845;DHT22;68700;48.534;9.196;2023-04-24T05:23:37;9.60;91.60
12845;DHT22;68700;48.534;9.196;2023-04-24T05:26:59;9.60;72.70
12845;DHT22;68700;48.534;9.196;2023-04-24T05:30:21;9.50;8.30
12845;DHT22;68700;48.534;9.196;2023-04-24T05:33:43;9.50;11.20
12845;DHT22;68700;48.534;9.196;2023-04-24T05:37:06;9.40;1.00
12845;DHT22;68700;48.534;9.196;2023-04-24T05:40:30;9.40;1.00
12845;DHT22;68700;48.534;9.196;2023-04-24T05:43:52;9.30;1.00
12845;DHT22;68700;48.534;9.196;2023-04-24T05:47:14;9.20;1.00
12845;DHT22;68700;48.534;9.196;2023-04-24T05:50:35;9.30;4.00
12845;DHT22;68700;48.534;9.196;2023-04-24T05:53:59;9.30;1.00
12845;DHT22;68700;48.534;9.196;2023-04-24T05:57:21;9.30;14.60
12845;DHT22;68700;48.534;9.196;2023-04-24T06:00:43;9.30;1.00
12845;DHT22;68700;48.534;9.196;2023-04-24T06:04:07;9.30;1.00
12845;DHT22;68700;48.534;9.196;2023-04-24T06:07:29;9.40;1.00
12845;DHT22;68700;48.534;9.196;2023-04-24T06:10:52;9.40;1.00
12845;DHT22;68700;48.534;9.196;2023-04-24T06:14:14;9.60;1.00
12845;DHT22;68700;48.534;9.196;2023-04-24T06:17:36;9.60;1.00
12845;DHT22;68700;48.534;9.196;2023-04-24T06:20:57;9.60;1.00
12845;DHT22;68700;48.534;9.196;2023-04-24T06:24:19;9.80;1.00
12845;DHT22;68700;48.534;9.196;2023-04-24T06:27:42;9.90;1.00
12845;DHT22;68700;48.534;9.196;2023-04-24T06:31:04;10.40;1.00
12845;DHT22;68700;48.534;9.196;2023-04-24T06:34:26;10.30;1.00
12845;DHT22;68700;48.534;9.196;2023-04-24T06:37:48;10.00;1.00
12845;DHT22;68700;48.534;9.196;2023-04-24T06:41:10;10.50;1.00
12845;DHT22;68700;48.534;9.196;2023-04-24T06:44:34;10.90;1.00
12845;DHT22;68700;48.534;9.196;2023-04-24T06:48:01;10.60;1.00
12845;DHT22;68700;48.534;9.196;2023-04-24T06:51:23;11.20;1.00
12845;DHT22;68700;48.534;9.196;2023-04-24T06:54:45;11.10;1.00
12845;DHT22;68700;48.534;9.196;2023-04-24T06:58:07;11.60;1.00
12845;DHT22;68700;48.534;9.196;2023-04-24T07:01:30;11.60;1.00
12845;DHT22;68700;48.534;9.196;2023-04-24T07:04:52;11.70;1.00
12845;DHT22;68700;48.534;9.196;2023-04-24T07:08:14;11.90;1.00
12845;DHT22;68700;48.534;9.196;2023-04-24T07:11:37;12.00;1.00
12845;DHT22;68700;48.534;9.196;2023-04-24T07:15:01;12.10;1.00
12845;DHT22;68700;48.534;9.196;2023-04-24T07:18:25;12.70;1.00
12845;DHT22;68700;48.534;9.196;2023-04-24T07:21:47;12.80;1.00
12845;DHT22;68700;48.534;9.196;2023-04-24T07:25:09;12.30;1.00
12845;DHT22;68700;48.534;9.196;2023-04-24T07:28:31;11.90;1.00
12845;DHT22;68700;48.534;9.196;2023-04-24T07:31:53;11.80;1.00
12845;DHT22;68700;48.534;9.196;2023-04-24T07:35:16;12.00;1.00
12845;DHT22;68700;48.534;9.196;2023-04-24T07:38:38;12.60;1.00
12845;DHT22;68700;48.534;9.196;2023-04-24T07:42:00;12.80;1.00
12845;DHT22;68700;48.534;9.196;2023-04-24T07:45:22;12.90;1.00
12845;DHT22;68700;48.534;9.196;2023-04-24T07:48:46;13.10;1.00
12845;DHT22;68700;48.534;9.196;2023-04-24T07:52:10;13.30;1.00
12845;DHT22;68700;48.534;9.196;2023-04-24T07:55:32;13.20;1.00
12845;DHT22;68700;48.534;9.196;2023-04-24T07:58:53;12.60;1.00
12845;DHT22;68700;48.534;9.196;2023-04-24T08:02:15;12.80;1.00
12845;DHT22;68700;48.534;9.196;2023-04-24T08:05:37;12.80;1.00
12845;DHT22;68700;48.534;9.196;2023-04-24T08:09:01;12.90;1.00
12845;DHT22;68700;48.534;9.196;2023-04-24T08:12:22;12.90;1.00
12845;DHT22;68700;48.534;9.196;2023-04-24T08:15:44;13.70;1.00
12845;DHT22;68700;48.534;9.196;2023-04-24T08:19:07;13.90;99.90
12845;DHT22;68700;48.534;9.196;2023-04-24T08:22:28;13.30;1.00
12845;DHT22;68700;48.534;9.196;2023-04-24T08:25:52;13.30;99.90
12845;DHT22;68700;48.534;9.196;2023-04-24T08:29:14;12.30;1.00
12845;DHT22;68700;48.534;9.196;2023-04-24T08:32:37;12.30;1.00
12845;DHT22;68700;48.534;9.196;2023-04-24T08:35:59;11.80;1.00
12845;DHT22;68700;48.534;9.196;2023-04-24T08:39:21;11.60;1.00
12845;DHT22;68700;48.534;9.196;2023-04-24T08:42:44;11.50;99.90
12845;DHT22;68700;48.534;9.196;2023-04-24T08:46:06;11.70;99.90
12845;DHT22;68700;48.534;9.196;2023-04-24T08:49:29;12.60;99.90
12845;DHT22;68700;48.534;9.196;2023-04-24T08:52:52;12.70;99.90
12845;DHT22;68700;48.534;9.196;2023-04-24T08:56:14;13.10;99.90
12845;DHT22;68700;48.534;9.196;2023-04-24T08:59:38;13.30;99.90
12845;DHT22;68700;48.534;9.196;2023-04-24T09:03:00;13.60;99.90
12845;DHT22;68700;48.534;9.196;2023-04-24T09:06:23;14.50;99.90
12845;DHT22;68700;48.534;9.196;2023-04-24T09:09:46;14.70;99.90
12845;DHT22;68700;48.534;9.196;2023-04-24T09:13:09;13.70;99.90
12845;DHT22;68700;48.534;9.196;2023-04-24T09:16:33;15.10;99.90
12845;DHT22;68700;48.534;9.196;2023-04-24T09:19:55;15.80;99.90
12845;DHT22;68700;48.534;9.196;2023-04-24T09:23:17;15.90;99.90
12845;DHT22;68700;48.534;9.196;2023-04-24T09:26:40;15.20;99.90
12845;DHT22;68700;48.534;9.196;2023-04-24T09:30:04;15.40;99.90
12845;DHT22;68700;48.534;9.196;2023-04-24T09:33:27;16.40;99.90
12845;DHT22;68700;48.534;9.196;2023-04-24T09:36:50;16.10;99.90
12845;DHT22;68700;48.534;9.196;2023-04-24T09:40:14;15.90;99.90
12845;DHT22;68700;48.534;9.196;2023-04-24T09:43:36;14.30;99.90
12845;DHT22;68700;48.534;9.196;2023-04-24T09:46:59;14.40;99.90
12845;DHT22;68700;48.534;9.196;2023-04-24T09:50:23;14.30;99.90
12845;DHT22;68700;48.534;9.196;2023-04-24T09:53:46;14.10;99.90
12845;DHT22;68700;48.534;9.196;2023-04-24T09:57:08;14.00;99.90
12845;DHT22;68700;48.534;9.196;2023-04-24T10:00:32;13.60;99.90
12845;DHT22;68700;48.534;9.196;2023-04-24T10:03:54;14.90;99.90
12845;DHT22;68700;48.534;9.196;2023-04-24T10:07:17;14.90;99.90
12845;DHT22;68700;48.534;9.196;2023-04-24T10:10:40;14.90;99.90
12845;DHT22;68700;48.534;9.196;2023-04-24T10:14:03;13.80;99.90
12845;DHT22;68700;48.534;9.196;2023-04-24T10:17:26;14.80;99.90
12845;DHT22;68700;48.534;9.196;2023-04-24T10:20:48;15.20;99.90
12845;DHT22;68700;48.534;9.196;2023-04-24T10:24:12;14.20;99.90
12845;DHT22;68700;48.534;9.196;2023-04-24T10:27:34;15.20;99.90
12845;DHT22;68700;48.534;9.196;2023-04-24T10:30:57;15.00;99.90
12845;DHT22;68700;48.534;9.196;2023-04-24T10:34:20;15.00;99.90
12845;DHT22;68700;48.534;9.196;2023-04-24T10:37:45;14.50;99.90
12845;DHT22;68700;48.534;9.196;2023-04-24T10:41:09;15.10;99.90
12845;DHT22;68700;48.534;9.196;2023-04-24T10:44:36;15.50;99.90
12845;DHT22;68700;48.534;9.196;2023-04-24T10:47:59;15.30;99.90
12845;DHT22;68700;48.534;9.196;2023-04-24T10:51:22;14.40;99.90
12845;DHT22;68700;48.534;9.196;2023-04-24T10:54:45;14.40;99.90
12845;DHT22;68700;48.534;9.196;2023-04-24T10:58:10;13.70;99.90
12845;DHT22;68700;48.534;9.196;2023-04-24T11:01:32;13.50;99.90
12845;DHT22;68700;48.534;9.196;2023-04-24T11:04:54;13.70;99.90
12845;DHT22;68700;48.534;9.196;2023-04-24T11:08:22;13.90;99.90
12845;DHT22;68700;48.534;9.196;2023-04-24T11:11:46;13.10;99.90
12845;DHT22;68700;48.534;9.196;2023-04-24T11:15:11;13.80;99.90
12845;DHT22;68700;48.534;9.196;2023-04-24T11:18:39;13.60;99.90
12845;DHT22;68700;48.534;9.196;2023-04-24T11:22:14;14.50;99.90
12845;DHT22;68700;48.534;9.196;2023-04-24T11:25:37;14.80;99.90
12845;DHT22;68700;48.534;9.196;2023-04-24T11:29:07;14.70;99.90
12845;DHT22;68700;48.534;9.196;2023-04-24T11:32:34;15.20;99.90
12845;DHT22;68700;48.534;9.196;2023-04-24T11:35:56;13.80;99.90
12845;DHT22;68700;48.534;9.196;2023-04-24T11:39:18;13.60;99.90
12845;DHT22;68700;48.534;9.196;2023-04-24T11:42:41;13.70;99.90
12845;DHT22;68700;48.534;9.196;2023-04-24T11:46:04;13.20;99.90
12845;DHT22;68700;48.534;9.196;2023-04-24T11:49:27;13.20;99.90
12845;DHT22;68700;48.534;9.196;2023-04-24T11:52:49;12.60;99.90
12845;DHT22;68700;48.534;9.196;2023-04-24T11:56:11;12.40;99.90
12845;DHT22;68700;48.534;9.196;2023-04-24T11:59:36;12.40;99.90
12845;DHT22;68700;48.534;9.196;2023-04-24T12:03:07;13.50;99.90
12845;DHT22;68700;48.534;9.196;2023-04-24T12:06:30;13.30;99.90
12845;DHT22;68700;48.534;9.196;2023-04-24T12:09:56;13.20;99.90
12845;DHT22;68700;48.534;9.196;2023-04-24T12:13:19;13.80;99.90
12845;DHT22;68700;48.534;9.196;2023-04-24T12:16:41;14.20;99.90
12845;DHT22;68700;48.534;9.196;2023-04-24T12:20:06;13.30;99.90
12845;DHT22;68700;48.534;9.196;2023-04-24T12:23:36;13.20;99.90
12845;DHT22;68700;48.534;9.196;2023-04-24T12:26:58;13.00;99.90
12845;DHT22;68700;48.534;9.196;2023-04-24T12:30:26;12.60;99.90
12845;DHT22;68700;48.534;9.196;2023-04-24T12:33:49;12.60;99.90
12845;DHT22;68700;48.534;9.196;2023-04-24T12:37:11;12.50;99.90
12845;DHT22;68700;48.534;9.196;2023-04-24T12:40:34;12.40;99.90
12845;DHT22;68700;48.534;9.196;2023-04-24T12:43:56;12.50;99.90
12845;DHT22;68700;48.534;9.196;2023-04-24T12:47:18;11.80;99.90
12845;DHT22;68700;48.534;9.196;2023-04-24T12:50:40;12.20;99.90
12845;DHT22;68700;48.534;9.196;2023-04-24T12:54:02;12.40;99.90
12845;DHT22;68700;48.534;9.196;2023-04-24T12:57:25;12.30;99.90
12845;DHT22;68700;48.534;9.196;2023-04-24T13:00:48;12.60;99.90
12845;DHT22;68700;48.534;9.196;2023-04-24T13:04:10;14.20;99.90
12845;DHT22;68700;48.534;9.196;2023-04-24T13:07:33;15.20;99.90
12845;DHT22;68700;48.534;9.196;2023-04-24T13:10:58;14.90;99.90
12845;DHT22;68700;48.534;9.196;2023-04-24T13:14:21;15.70;99.90
12845;DHT22;68700;48.534;9.196;2023-04-24T13:17:43;15.40;99.90
12845;DHT22;68700;48.534;9.196;2023-04-24T13:21:05;15.30;99.90
12845;DHT22;68700;48.534;9.196;2023-04-24T13:24:27;15.70;99.90
12845;DHT22;68700;48.534;9.196;2023-04-24T13:27:49;15.60;99.90
12845;DHT22;68700;48.534;9.196;2023-04-24T13:31:12;14.10;99.90
12845;DHT22;68700;48.534;9.196;2023-04-24T13:34:34;13.30;99.90
12845;DHT22;68700;48.534;9.196;2023-04-24T13:37:57;13.70;99.90
12845;DHT22;68700;48.534;9.196;2023-04-24T13:41:26;13.30;99.90
12845;DHT22;68700;48.534;9.196;2023-04-24T13:44:48;13.50;99.90
12845;DHT22;68700;48.534;9.196;2023-04-24T13:48:12;13.00;99.90
12845;DHT22;68700;48.534;9.196;2023-04-24T13:51:35;12.80;99.90
12845;DHT22;68700;48.534;9.196;2023-04-24T13:54:57;12.80;99.90
12845;DHT22;68700;48.534;9.196;2023-04-24T13:58:19;12.90;99.90
12845;DHT22;68700;48.534;9.196;2023-04-24T14:01:41;13.00;99.90
12845;DHT22;68700;48.534;9.196;2023-04-24T14:05:07;13.00;99.90
12845;DHT22;68700;48.534;9.196;2023-04-24T14:08:31;12.90;99.90
12845;DHT22;68700;48.534;9.196;2023-04-24T14:11:53;13.00;99.90
12845;DHT22;68700;48.534;9.196;2023-04-24T14:15:15;13.30;99.90
12845;DHT22;68700;48.534;9.196;2023-04-24T14:18:37;13.00;99.90
12845;DHT22;68700;48.534;9.196;2023-04-24T14:22:01;13.10;99.90
12845;DHT22;68700;48.534;9.196;2023-04-24T14:25:22;13.10;99.90
12845;DHT22;68700;48.534;9.196;2023-04-24T14:28:44;12.60;99.90
12845;DHT22;68700;48.534;9.196;2023-04-24T14:32:06;12.60;99.90
12845;DHT22;68700;48.534;9.196;2023-04-24T14:35:29;12.30;99.90
12845;DHT22;68700;48.534;9.196;2023-04-24T14:38:56;12.30;99.90
12845;DHT22;68700;48.534;9.196;2023-04-24T14:42:17;12.50;99.90
12845;DHT22;68700;48.534;9.196;2023-04-24T14:45:39;12.20;99.90
12845;DHT22;68700;48.534;9.196;2023-04-24T14:49:01;12.10;99.90
12845;DHT22;68700;48.534;9.196;2023-04-24T14:52:23;12.20;99.90
12845;DHT22;68700;48.534;9.196;2023-04-24T14:55:46;12.50;99.90
12845;DHT22;68700;48.534;9.196;2023-04-24T14:59:08;12.60;99.90
12845;DHT22;68700;48.534;9.196;2023-04-24T15:02:30;12.70;99.90
12845;DHT22;68700;48.534;9.196;2023-04-24T15:05:52;12.60;99.90
12845;DHT22;68700;48.534;9.196;2023-04-24T15:09:14;12.40;99.90
12845;DHT22;68700;48.534;9.196;2023-04-24T15:12:37;12.40;99.90
12845;DHT22;68700;48.534;9.196;2023-04-24T15:15:59;12.50;99.90
12845;DHT22;68700;48.534;9.196;2023-04-24T15:19:22;12.80;99.90
12845;DHT22;68700;48.534;9.196;2023-04-24T15:22:44;12.50;99.90
12845;DHT22;68700;48.534;9.196;2023-04-24T15:26:06;12.40;99.90
12845;DHT22;68700;48.534;9.196;2023-04-24T15:29:29;12.80;99.90
12845;DHT22;68700;48.534;9.196;2023-04-24T15:32:51;12.90;99.90
12845;DHT22;68700;48.534;9.196;2023-04-24T15:36:13;13.10;99.90
12845;DHT22;68700;48.534;9.196;2023-04-24T15:39:34;13.20;99.90
12845;DHT22;68700;48.534;9.196;2023-04-24T15:42:56;14.10;99.90
12845;DHT22;68700;48.534;9.196;2023-04-24T15:46:20;14.30;99.90
12845;DHT22;68700;48.534;9.196;2023-04-24T15:49:41;14.20;99.90
12845;DHT22;68700;48.534;9.196;2023-04-24T15:53:03;14.60;99.90
12845;DHT22;68700;48.534;9.196;2023-04-24T15:56:25;14.00;99.90
12845;DHT22;68700;48.534;9.196;2023-04-24T15:59:47;13.60;99.90
12845;DHT22;68700;48.534;9.196;2023-04-24T16:03:12;13.10;99.90
12845;DHT22;68700;48.534;9.196;2023-04-24T16:06:34;12.60;99.90
12845;DHT22;68700;48.534;9.196;2023-04-24T16:09:56;12.80;99.90
12845;DHT22;68700;48.534;9.196;2023-04-24T16:13:18;12.60;99.90
12845;DHT22;68700;48.534;9.196;2023-04-24T16:16:40;12.80;99.90
12845;DHT22;68700;48.534;9.196;2023-04-24T16:20:03;13.10;99.90
12845;DHT22;68700;48.534;9.196;2023-04-24T16:23:27;13.10;99.90
12845;DHT22;68700;48.534;9.196;2023-04-24T16:26:49;12.60;99.90
12845;DHT22;68700;48.534;9.196;2023-04-24T16:30:11;12.30;99.90
12845;DHT22;68700;48.534;9.196;2023-04-24T16:33:33;12.50;99.90
12845;DHT22;68700;48.534;9.196;2023-04-24T16:36:57;12.20;99.90
12845;DHT22;68700;48.534;9.196;2023-04-24T16:40:19;12.30;99.90
12845;DHT22;68700;48.534;9.196;2023-04-24T16:43:41;12.30;99.90
12845;DHT22;68700;48.534;9.196;2023-04-24T16:47:03;12.30;99.90
12845;DHT22;68700;48.534;9.196;2023-04-24T16:50:25;12.30;99.90
12845;DHT22;68700;48.534;9.196;2023-04-24T16:53:48;12.30;99.90
12845;DHT22;68700;48.534;9.196;2023-04-24T16:57:10;12.30;99.90
12845;DHT22;68700;48.534;9.196;2023-04-24T17:00:32;12.50;99.90
12845;DHT22;68700;48.534;9.196;2023-04-24T17:03:54;12.30;99.90
12845;DHT22;68700;48.534;9.196;2023-04-24T17:07:16;12.20;99.90
12845;DHT22;68700;48.534;9.196;2023-04-24T17:10:39;12.30;99.90
12845;DHT22;68700;48.534;9.196;2023-04-24T17:14:01;12.40;99.90
12845;DHT22;68700;48.534;9.196;2023-04-24T17:17:24;12.20;99.90
12845;DHT22;68700;48.534;9.196;2023-04-24T17:20:46;12.30;99.90
12845;DHT22;68700;48.534;9.196;2023-04-24T17:24:08;12.50;99.90
12845;DHT22;68700;48.534;9.196;2023-04-24T17:27:31;12.60;99.90
12845;DHT22;68700;48.534;9.196;2023-04-24T17:30:53;12.50;99.90
12845;DHT22;68700;48.534;9.196;2023-04-24T17:34:17;12.40;99.90
12845;DHT22;68700;48.534;9.196;2023-04-24T17:37:39;12.30;99.90
12845;DHT22;68700;48.534;9.196;2023-04-24T17:41:01;12.10;99.90
12845;DHT22;68700;48.534;9.196;2023-04-24T17:44:24;12.20;99.90
12845;DHT22;68700;48.534;9.196;2023-04-24T17:47:46;12.10;99.90
12845;DHT22;68700;48.534;9.196;2023-04-24T17:51:08;11.70;99.90
12845;DHT22;68700;48.534;9.196;2023-04-24T17:54:30;11.50;99.90
12845;DHT22;68700;48.534;9.196;2023-04-24T17:57:52;11.50;99.90
12845;DHT22;68700;48.534;9.196;2023-04-24T18:01:15;11.40;99.90
12845;DHT22;68700;48.534;9.196;2023-04-24T18:04:37;11.10;99.90
12845;DHT22;68700;48.534;9.196;2023-04-24T18:08:03;11.00;99.90
12845;DHT22;68700;48.534;9.196;2023-04-24T18:11:25;11.00;99.90
12845;DHT22;68700;48.534;9.196;2023-04-24T18:14:48;11.00;99.90
12845;DHT22;68700;48.534;9.196;2023-04-24T18:18:11;10.80;99.90
12845;DHT22;68700;48.534;9.196;2023-04-24T18:21:34;10.80;99.90
12845;DHT22;68700;48.534;9.196;2023-04-24T18:24:56;10.70;1.40
12845;DHT22;68700;48.534;9.196;2023-04-24T18:28:18;10.60;1.00
12845;DHT22;68700;48.534;9.196;2023-04-24T18:31:40;10.40;1.00
12845;DHT22;68700;48.534;9.196;2023-04-24T18:35:04;10.40;1.00
12845;DHT22;68700;48.534;9.196;2023-04-24T18:38:26;10.50;1.00
12845;DHT22;68700;48.534;9.196;2023-04-24T18:41:48;10.50;1.00
12845;DHT22;68700;48.534;9.196;2023-04-24T18:45:10;10.40;1.00
12845;DHT22;68700;48.534;9.196;2023-04-24T18:48:33;10.50;1.00
12845;DHT22;68700;48.534;9.196;2023-04-24T18:51:56;10.50;1.00
12845;DHT22;68700;48.534;9.196;2023-04-24T18:55:18;10.40;1.00
12845;DHT22;68700;48.534;9.196;2023-04-24T18:58:40;10.20;1.00
12845;DHT22;68700;48.534;9.196;2023-04-24T19:02:06;10.10;1.00
12845;DHT22;68700;48.534;9.196;2023-04-24T19:05:28;9.90;1.00
12845;DHT22;68700;48.534;9.196;2023-04-24T19:08:52;9.80;1.00
12845;DHT22;68700;48.534;9.196;2023-04-24T19:12:13;9.70;1.00
12845;DHT22;68700;48.534;9.196;2023-04-24T19:15:35;9.60;1.00
12845;DHT22;68700;48.534;9.196;2023-04-24T19:18:57;9.50;1.00
12845;DHT22;68700;48.534;9.196;2023-04-24T19:22:19;9.40;1.00
12845;DHT22;68700;48.534;9.196;2023-04-24T19:25:42;9.30;1.00
12845;DHT22;68700;48.534;9.196;2023-04-24T19:29:04;9.30;1.00
12845;DHT22;68700;48.534;9.196;2023-04-24T19:32:26;9.30;1.00
12845;DHT22;68700;48.534;9.196;2023-04-24T19:35:48;9.20;1.00
12845;DHT22;68700;48.534;9.196;2023-04-24T19:39:10;9.20;1.00
12845;DHT22;68700;48.534;9.196;2023-04-24T19:42:33;9.30;1.00
12845;DHT22;68700;48.534;9.196;2023-04-24T19:45:55;9.30;1.00
12845;DHT22;68700;48.534;9.196;2023-04-24T19:49:18;9.30;1.00
12845;DHT22;68700;48.534;9.196;2023-04-24T19:52:39;9.30;1.00
12845;DHT22;68700;48.534;9.196;2023-04-24T19:56:01;9.30;1.00
12845;DHT22;68700;48.534;9.196;2023-04-24T19:59:25;9.30;1.00
12845;DHT22;68700;48.534;9.196;2023-04-24T20:02:46;9.20;1.00
12845;DHT22;68700;48.534;9.196;2023-04-24T20:06:08;9.10;1.00
12845;DHT22;68700;48.534;9.196;2023-04-24T20:09:30;9.10;1.00
12845;DHT22;68700;48.534;9.196;2023-04-24T20:12:52;9.20;1.00
12845;DHT22;68700;48.534;9.196;2023-04-24T20:16:16;9.10;1.00
12845;DHT22;68700;48.534;9.196;2023-04-24T20:19:38;9.20;1.00
12845;DHT22;68700;48.534;9.196;2023-04-24T20:23:00;9.20;1.00
12845;DHT22;68700;48.534;9.196;2023-04-24T20:26:22;9.10;1.00
12845;DHT22;68700;48.534;9.196;2023-04-24T20:29:44;9.10;1.00
12845;DHT22;68700;48.534;9.196;2023-04-24T20:33:07;9.10;1.00
12845;DHT22;68700;48.534;9.196;2023-04-24T20:36:29;9.00;1.00
12845;DHT22;68700;48.534;9.196;2023-04-24T20:39:53;8.90;1.00
12845;DHT22;68700;48.534;9.196;2023-04-24T20:43:15;8.80;1.00
12845;DHT22;68700;48.534;9.196;2023-04-24T20:46:37;8.70;1.00
12845;DHT22;68700;48.534;9.196;2023-04-24T20:50:00;8.80;1.00
12845;DHT22;68700;48.534;9.196;2023-04-24T20:53:23;8.60;1.00
12845;DHT22;68700;48.534;9.196;2023-04-24T20:56:46;8.40;1.00
12845;DHT22;68700;48.534;9.196;2023-04-24T21:00:08;8.40;1.00
12845;DHT22;68700;48.534;9.196;2023-04-24T21:03:30;8.40;1.00
12845;DHT22;68700;48.534;9.196;2023-04-24T21:06:54;8.40;1.00
12845;DHT22;68700;48.534;9.196;2023-04-24T21:10:16;8.30;1.00
12845;DHT22;68700;48.534;9.196;2023-04-24T21:13:38;8.30;1.00
12845;DHT22;68700;48.534;9.196;2023-04-24T21:17:00;8.30;1.00
12845;DHT22;68700;48.534;9.196;2023-04-24T21:20:22;8.40;1.00
12845;DHT22;68700;48.534;9.196;2023-04-24T21:23:46;8.40;1.00
12845;DHT22;68700;48.534;9.196;2023-04-24T21:27:08;8.50;1.00
12845;DHT22;68700;48.534;9.196;2023-04-24T21:30:30;8.40;1.00
12845;DHT22;68700;48.534;9.196;2023-04-24T21:33:52;8.40;1.00
12845;DHT22;68700;48.534;9.196;2023-04-24T21:37:14;8.40;1.00